Apopka, Florida
Current Conditions -  °F | °C
As of 6:53 PM on Friday 24 Oct 2014 (Local Time) from KORL Reporting Station
Scattered Clouds Scattered Clouds  
Wind Chill: 73°   Ceiling: Unl
Heat Index: 73°   Visibility: 10mi
Dew Point: 58°   Wind: 6mph
Humidity: 59%   Direction: 50°NE
Pressure: 29.93"   Gusts: NA
Location:  28.67°N, 81.51°W
Report Text: KORL 242253Z 05005KT 10SM SCT045 23/14 A2993 RMK AO2 SLP137 T02280144
Loading
Personal Weather Stations






























Interactive Weather Map
Tropical Storm Tracking
New forecast layout! Learn more

10-Day Weather Forecast

Advertisements
Track Severe Weather on mobile